sensor_id;sensor_type;location;lat;lon;timestamp;P1;durP1;ratioP1;P2;durP2;ratioP2
11054;SDS011;5580;50.106;8.702;2022-07-23T00:00:54;11.73;;;8.13;;
11054;SDS011;5580;50.106;8.702;2022-07-23T00:03:20;11.23;;;7.90;;
11054;SDS011;5580;50.106;8.702;2022-07-23T00:05:46;13.37;;;7.90;;
11054;SDS011;5580;50.106;8.702;2022-07-23T00:08:11;11.93;;;8.13;;
11054;SDS011;5580;50.106;8.702;2022-07-23T00:10:37;11.77;;;7.77;;
11054;SDS011;5580;50.106;8.702;2022-07-23T00:13:03;11.90;;;7.77;;
11054;SDS011;5580;50.106;8.702;2022-07-23T00:15:28;11.97;;;8.40;;
11054;SDS011;5580;50.106;8.702;2022-07-23T00:17:54;11.97;;;7.90;;
11054;SDS011;5580;50.106;8.702;2022-07-23T00:20:20;12.20;;;7.90;;
11054;SDS011;5580;50.106;8.702;2022-07-23T00:22:49;11.70;;;8.13;;
11054;SDS011;5580;50.106;8.702;2022-07-23T00:25:16;11.93;;;7.73;;
11054;SDS011;5580;50.106;8.702;2022-07-23T00:27:42;12.60;;;7.90;;
11054;SDS011;5580;50.106;8.702;2022-07-23T00:30:08;12.67;;;8.30;;
11054;SDS011;5580;50.106;8.702;2022-07-23T00:35:12;10.67;;;7.47;;
11054;SDS011;5580;50.106;8.702;2022-07-23T00:37:37;13.67;;;8.17;;
11054;SDS011;5580;50.106;8.702;2022-07-23T00:40:03;11.83;;;8.10;;
11054;SDS011;5580;50.106;8.702;2022-07-23T00:42:30;13.27;;;8.60;;
11054;SDS011;5580;50.106;8.702;2022-07-23T00:44:57;10.27;;;7.87;;
11054;SDS011;5580;50.106;8.702;2022-07-23T00:47:22;13.07;;;7.73;;
11054;SDS011;5580;50.106;8.702;2022-07-23T00:49:48;11.80;;;7.80;;
11054;SDS011;5580;50.106;8.702;2022-07-23T00:52:13;12.53;;;8.37;;
11054;SDS011;5580;50.106;8.702;2022-07-23T00:54:39;13.70;;;8.53;;
11054;SDS011;5580;50.106;8.702;2022-07-23T00:57:05;12.13;;;8.13;;
11054;SDS011;5580;50.106;8.702;2022-07-23T00:59:31;12.90;;;8.67;;
11054;SDS011;5580;50.106;8.702;2022-07-23T01:01:56;12.37;;;8.00;;
11054;SDS011;5580;50.106;8.702;2022-07-23T01:04:22;13.20;;;8.37;;
11054;SDS011;5580;50.106;8.702;2022-07-23T01:06:48;12.90;;;8.30;;
11054;SDS011;5580;50.106;8.702;2022-07-23T01:09:14;13.07;;;8.80;;
11054;SDS011;5580;50.106;8.702;2022-07-23T01:11:39;15.97;;;8.73;;
11054;SDS011;5580;50.106;8.702;2022-07-23T01:14:07;12.57;;;8.37;;
11054;SDS011;5580;50.106;8.702;2022-07-23T01:16:37;13.20;;;8.23;;
11054;SDS011;5580;50.106;8.702;2022-07-23T01:19:03;15.67;;;8.70;;
11054;SDS011;5580;50.106;8.702;2022-07-23T01:21:31;14.10;;;8.80;;
11054;SDS011;5580;50.106;8.702;2022-07-23T01:24:01;13.13;;;8.47;;
11054;SDS011;5580;50.106;8.702;2022-07-23T01:26:27;13.40;;;8.13;;
11054;SDS011;5580;50.106;8.702;2022-07-23T01:28:52;11.70;;;8.27;;
11054;SDS011;5580;50.106;8.702;2022-07-23T01:31:18;12.07;;;8.47;;
11054;SDS011;5580;50.106;8.702;2022-07-23T01:33:44;16.17;;;8.40;;
11054;SDS011;5580;50.106;8.702;2022-07-23T01:36:10;12.20;;;8.10;;
11054;SDS011;5580;50.106;8.702;2022-07-23T01:38:36;13.30;;;8.43;;
11054;SDS011;5580;50.106;8.702;2022-07-23T01:41:01;13.93;;;8.27;;
11054;SDS011;5580;50.106;8.702;2022-07-23T01:43:27;11.73;;;8.13;;
11054;SDS011;5580;50.106;8.702;2022-07-23T01:45:53;13.40;;;9.00;;
11054;SDS011;5580;50.106;8.702;2022-07-23T01:48:18;13.13;;;8.57;;
11054;SDS011;5580;50.106;8.702;2022-07-23T01:50:45;12.00;;;8.60;;
11054;SDS011;5580;50.106;8.702;2022-07-23T01:53:12;14.20;;;8.43;;
11054;SDS011;5580;50.106;8.702;2022-07-23T01:55:38;14.03;;;8.20;;
11054;SDS011;5580;50.106;8.702;2022-07-23T01:58:03;13.83;;;9.03;;
11054;SDS011;5580;50.106;8.702;2022-07-23T02:00:30;15.70;;;8.53;;
11054;SDS011;5580;50.106;8.702;2022-07-23T02:02:56;12.00;;;7.97;;
11054;SDS011;5580;50.106;8.702;2022-07-23T02:05:23;13.53;;;8.53;;
11054;SDS011;5580;50.106;8.702;2022-07-23T02:07:50;11.33;;;7.93;;
11054;SDS011;5580;50.106;8.702;2022-07-23T02:10:15;13.40;;;8.40;;
11054;SDS011;5580;50.106;8.702;2022-07-23T02:12:41;13.10;;;8.40;;
11054;SDS011;5580;50.106;8.702;2022-07-23T02:15:07;12.07;;;8.50;;
11054;SDS011;5580;50.106;8.702;2022-07-23T02:17:33;11.67;;;8.33;;
11054;SDS011;5580;50.106;8.702;2022-07-23T02:19:58;13.13;;;8.23;;
11054;SDS011;5580;50.106;8.702;2022-07-23T02:22:24;12.23;;;8.50;;
11054;SDS011;5580;50.106;8.702;2022-07-23T02:24:49;12.27;;;8.70;;
11054;SDS011;5580;50.106;8.702;2022-07-23T02:27:15;14.17;;;8.93;;
11054;SDS011;5580;50.106;8.702;2022-07-23T02:29:41;11.60;;;8.60;;
11054;SDS011;5580;50.106;8.702;2022-07-23T02:32:06;12.73;;;8.67;;
11054;SDS011;5580;50.106;8.702;2022-07-23T02:34:32;12.60;;;8.83;;
11054;SDS011;5580;50.106;8.702;2022-07-23T02:36:57;12.83;;;8.90;;
11054;SDS011;5580;50.106;8.702;2022-07-23T02:39:23;12.20;;;8.70;;
11054;SDS011;5580;50.106;8.702;2022-07-23T02:41:49;12.93;;;8.60;;
11054;SDS011;5580;50.106;8.702;2022-07-23T02:44:14;12.60;;;8.90;;
11054;SDS011;5580;50.106;8.702;2022-07-23T02:46:40;14.60;;;8.80;;
11054;SDS011;5580;50.106;8.702;2022-07-23T02:49:05;13.23;;;8.90;;
11054;SDS011;5580;50.106;8.702;2022-07-23T02:51:31;12.13;;;8.93;;
11054;SDS011;5580;50.106;8.702;2022-07-23T02:53:56;11.57;;;8.80;;
11054;SDS011;5580;50.106;8.702;2022-07-23T02:56:22;13.93;;;8.80;;
11054;SDS011;5580;50.106;8.702;2022-07-23T02:58:48;13.10;;;8.80;;
11054;SDS011;5580;50.106;8.702;2022-07-23T03:01:13;11.47;;;8.53;;
11054;SDS011;5580;50.106;8.702;2022-07-23T03:03:39;12.97;;;8.50;;
11054;SDS011;5580;50.106;8.702;2022-07-23T03:06:05;13.90;;;9.10;;
11054;SDS011;5580;50.106;8.702;2022-07-23T03:08:30;14.13;;;9.17;;
11054;SDS011;5580;50.106;8.702;2022-07-23T03:10:56;13.77;;;8.83;;
11054;SDS011;5580;50.106;8.702;2022-07-23T03:13:22;12.47;;;8.43;;
11054;SDS011;5580;50.106;8.702;2022-07-23T03:15:47;12.33;;;8.43;;
11054;SDS011;5580;50.106;8.702;2022-07-23T03:18:13;13.83;;;9.17;;
11054;SDS011;5580;50.106;8.702;2022-07-23T03:20:39;12.43;;;8.53;;
11054;SDS011;5580;50.106;8.702;2022-07-23T03:23:04;12.80;;;8.50;;
11054;SDS011;5580;50.106;8.702;2022-07-23T03:25:30;12.60;;;8.83;;
11054;SDS011;5580;50.106;8.702;2022-07-23T03:27:56;12.80;;;8.70;;
11054;SDS011;5580;50.106;8.702;2022-07-23T03:30:21;12.53;;;8.47;;
11054;SDS011;5580;50.106;8.702;2022-07-23T03:32:47;13.20;;;8.87;;
11054;SDS011;5580;50.106;8.702;2022-07-23T03:35:13;13.30;;;8.80;;
11054;SDS011;5580;50.106;8.702;2022-07-23T03:37:38;11.37;;;8.27;;
11054;SDS011;5580;50.106;8.702;2022-07-23T03:40:04;15.07;;;9.07;;
11054;SDS011;5580;50.106;8.702;2022-07-23T03:42:30;13.47;;;8.83;;
11054;SDS011;5580;50.106;8.702;2022-07-23T03:44:56;14.90;;;8.97;;
11054;SDS011;5580;50.106;8.702;2022-07-23T03:47:21;14.63;;;9.83;;
11054;SDS011;5580;50.106;8.702;2022-07-23T03:49:47;12.67;;;9.30;;
11054;SDS011;5580;50.106;8.702;2022-07-23T03:52:13;13.50;;;9.80;;
11054;SDS011;5580;50.106;8.702;2022-07-23T03:54:39;13.30;;;9.53;;
11054;SDS011;5580;50.106;8.702;2022-07-23T03:57:05;14.37;;;9.20;;
11054;SDS011;5580;50.106;8.702;2022-07-23T03:59:30;13.73;;;9.23;;
11054;SDS011;5580;50.106;8.702;2022-07-23T04:01:56;14.37;;;9.43;;
11054;SDS011;5580;50.106;8.702;2022-07-23T04:04:22;14.27;;;9.37;;
11054;SDS011;5580;50.106;8.702;2022-07-23T04:06:47;13.60;;;9.20;;
11054;SDS011;5580;50.106;8.702;2022-07-23T04:09:13;14.70;;;9.47;;
11054;SDS011;5580;50.106;8.702;2022-07-23T04:11:39;13.23;;;9.23;;
11054;SDS011;5580;50.106;8.702;2022-07-23T04:14:05;14.60;;;9.27;;
11054;SDS011;5580;50.106;8.702;2022-07-23T04:16:30;13.53;;;9.90;;
11054;SDS011;5580;50.106;8.702;2022-07-23T04:18:56;14.60;;;9.97;;
11054;SDS011;5580;50.106;8.702;2022-07-23T04:21:23;13.83;;;10.20;;
11054;SDS011;5580;50.106;8.702;2022-07-23T04:23:49;13.97;;;9.77;;
11054;SDS011;5580;50.106;8.702;2022-07-23T04:26:15;14.57;;;10.07;;
11054;SDS011;5580;50.106;8.702;2022-07-23T04:28:40;13.97;;;9.53;;
11054;SDS011;5580;50.106;8.702;2022-07-23T04:31:06;13.17;;;9.60;;
11054;SDS011;5580;50.106;8.702;2022-07-23T04:33:32;15.57;;;9.60;;
11054;SDS011;5580;50.106;8.702;2022-07-23T04:35:57;15.60;;;10.40;;
11054;SDS011;5580;50.106;8.702;2022-07-23T04:38:23;14.50;;;9.93;;
11054;SDS011;5580;50.106;8.702;2022-07-23T04:40:49;14.53;;;9.70;;
11054;SDS011;5580;50.106;8.702;2022-07-23T04:43:14;13.90;;;9.60;;
11054;SDS011;5580;50.106;8.702;2022-07-23T04:45:40;14.40;;;9.70;;
11054;SDS011;5580;50.106;8.702;2022-07-23T04:48:05;13.13;;;9.47;;
11054;SDS011;5580;50.106;8.702;2022-07-23T04:50:31;13.53;;;9.80;;
11054;SDS011;5580;50.106;8.702;2022-07-23T04:52:57;13.80;;;9.67;;
11054;SDS011;5580;50.106;8.702;2022-07-23T04:55:22;14.97;;;9.23;;
11054;SDS011;5580;50.106;8.702;2022-07-23T04:57:48;14.27;;;9.83;;
11054;SDS011;5580;50.106;8.702;2022-07-23T05:00:14;14.00;;;9.40;;
11054;SDS011;5580;50.106;8.702;2022-07-23T05:02:40;14.47;;;9.53;;
11054;SDS011;5580;50.106;8.702;2022-07-23T05:05:05;12.77;;;9.07;;
11054;SDS011;5580;50.106;8.702;2022-07-23T05:07:31;13.23;;;10.17;;
11054;SDS011;5580;50.106;8.702;2022-07-23T05:09:57;13.17;;;9.30;;
11054;SDS011;5580;50.106;8.702;2022-07-23T05:12:22;13.03;;;9.23;;
11054;SDS011;5580;50.106;8.702;2022-07-23T05:14:48;14.80;;;10.20;;
11054;SDS011;5580;50.106;8.702;2022-07-23T05:17:13;13.83;;;9.63;;
11054;SDS011;5580;50.106;8.702;2022-07-23T05:19:39;16.60;;;10.00;;
11054;SDS011;5580;50.106;8.702;2022-07-23T05:22:04;12.90;;;9.33;;
11054;SDS011;5580;50.106;8.702;2022-07-23T05:24:30;14.23;;;10.57;;
11054;SDS011;5580;50.106;8.702;2022-07-23T05:26:55;15.53;;;10.63;;
11054;SDS011;5580;50.106;8.702;2022-07-23T05:29:21;14.87;;;10.57;;
11054;SDS011;5580;50.106;8.702;2022-07-23T05:31:47;16.53;;;10.93;;
11054;SDS011;5580;50.106;8.702;2022-07-23T05:34:12;15.00;;;10.47;;
11054;SDS011;5580;50.106;8.702;2022-07-23T05:36:38;14.47;;;10.80;;
11054;SDS011;5580;50.106;8.702;2022-07-23T05:39:04;15.37;;;10.60;;
11054;SDS011;5580;50.106;8.702;2022-07-23T05:41:30;17.60;;;10.70;;
11054;SDS011;5580;50.106;8.702;2022-07-23T05:43:55;15.83;;;10.67;;
11054;SDS011;5580;50.106;8.702;2022-07-23T05:46:21;14.93;;;10.47;;
11054;SDS011;5580;50.106;8.702;2022-07-23T05:48:47;15.27;;;10.87;;
11054;SDS011;5580;50.106;8.702;2022-07-23T05:51:19;16.57;;;10.47;;
11054;SDS011;5580;50.106;8.702;2022-07-23T05:53:46;16.80;;;10.97;;
11054;SDS011;5580;50.106;8.702;2022-07-23T05:56:11;15.23;;;10.20;;
11054;SDS011;5580;50.106;8.702;2022-07-23T05:58:37;15.93;;;10.87;;
11054;SDS011;5580;50.106;8.702;2022-07-23T06:01:02;15.63;;;10.40;;
11054;SDS011;5580;50.106;8.702;2022-07-23T06:03:28;15.37;;;10.80;;
11054;SDS011;5580;50.106;8.702;2022-07-23T06:05:53;15.80;;;10.60;;
11054;SDS011;5580;50.106;8.702;2022-07-23T06:08:19;19.97;;;11.40;;
11054;SDS011;5580;50.106;8.702;2022-07-23T06:10:45;17.57;;;10.60;;
11054;SDS011;5580;50.106;8.702;2022-07-23T06:13:10;15.67;;;10.63;;
11054;SDS011;5580;50.106;8.702;2022-07-23T06:15:36;14.33;;;10.10;;
11054;SDS011;5580;50.106;8.702;2022-07-23T06:18:01;15.43;;;9.93;;
11054;SDS011;5580;50.106;8.702;2022-07-23T06:20:27;16.10;;;10.07;;
11054;SDS011;5580;50.106;8.702;2022-07-23T06:22:53;15.47;;;10.13;;
11054;SDS011;5580;50.106;8.702;2022-07-23T06:25:18;13.77;;;9.83;;
11054;SDS011;5580;50.106;8.702;2022-07-23T06:27:45;15.20;;;9.87;;
11054;SDS011;5580;50.106;8.702;2022-07-23T06:30:11;14.73;;;10.00;;
11054;SDS011;5580;50.106;8.702;2022-07-23T06:32:37;14.33;;;9.90;;
11054;SDS011;5580;50.106;8.702;2022-07-23T06:35:03;14.07;;;9.23;;
11054;SDS011;5580;50.106;8.702;2022-07-23T06:37:29;14.40;;;9.33;;
11054;SDS011;5580;50.106;8.702;2022-07-23T06:39:55;17.13;;;10.50;;
11054;SDS011;5580;50.106;8.702;2022-07-23T06:42:20;14.57;;;8.93;;
11054;SDS011;5580;50.106;8.702;2022-07-23T06:44:46;13.40;;;9.07;;
11054;SDS011;5580;50.106;8.702;2022-07-23T06:47:12;13.63;;;9.57;;
11054;SDS011;5580;50.106;8.702;2022-07-23T06:49:37;13.93;;;9.10;;
11054;SDS011;5580;50.106;8.702;2022-07-23T06:52:03;15.50;;;9.00;;
11054;SDS011;5580;50.106;8.702;2022-07-23T06:54:28;14.30;;;8.63;;
11054;SDS011;5580;50.106;8.702;2022-07-23T06:56:54;13.00;;;8.77;;
11054;SDS011;5580;50.106;8.702;2022-07-23T06:59:20;13.47;;;9.20;;
11054;SDS011;5580;50.106;8.702;2022-07-23T07:01:45;14.20;;;8.27;;
11054;SDS011;5580;50.106;8.702;2022-07-23T07:04:11;14.33;;;9.03;;
11054;SDS011;5580;50.106;8.702;2022-07-23T07:06:36;14.40;;;8.70;;
11054;SDS011;5580;50.106;8.702;2022-07-23T07:09:02;13.17;;;8.77;;
11054;SDS011;5580;50.106;8.702;2022-07-23T07:11:28;12.73;;;8.20;;
11054;SDS011;5580;50.106;8.702;2022-07-23T07:13:53;12.80;;;8.10;;
11054;SDS011;5580;50.106;8.702;2022-07-23T07:16:19;12.60;;;8.23;;
11054;SDS011;5580;50.106;8.702;2022-07-23T07:18:44;13.03;;;7.87;;
11054;SDS011;5580;50.106;8.702;2022-07-23T07:21:11;15.00;;;8.23;;
11054;SDS011;5580;50.106;8.702;2022-07-23T07:23:37;12.10;;;7.80;;
11054;SDS011;5580;50.106;8.702;2022-07-23T07:26:02;10.90;;;7.63;;
11054;SDS011;5580;50.106;8.702;2022-07-23T07:28:28;13.47;;;8.37;;
11054;SDS011;5580;50.106;8.702;2022-07-23T07:30:53;11.00;;;7.50;;
11054;SDS011;5580;50.106;8.702;2022-07-23T07:33:19;12.67;;;7.87;;
11054;SDS011;5580;50.106;8.702;2022-07-23T07:35:46;12.07;;;7.97;;
11054;SDS011;5580;50.106;8.702;2022-07-23T07:38:12;11.47;;;7.53;;
11054;SDS011;5580;50.106;8.702;2022-07-23T07:40:37;12.00;;;7.60;;
11054;SDS011;5580;50.106;8.702;2022-07-23T07:43:03;11.03;;;7.47;;
11054;SDS011;5580;50.106;8.702;2022-07-23T07:45:29;12.03;;;7.40;;
11054;SDS011;5580;50.106;8.702;2022-07-23T07:47:55;13.90;;;7.97;;
11054;SDS011;5580;50.106;8.702;2022-07-23T07:50:21;10.77;;;7.73;;
11054;SDS011;5580;50.106;8.702;2022-07-23T07:52:47;11.67;;;7.57;;
11054;SDS011;5580;50.106;8.702;2022-07-23T07:55:12;11.13;;;7.40;;
11054;SDS011;5580;50.106;8.702;2022-07-23T07:57:38;12.40;;;7.57;;
11054;SDS011;5580;50.106;8.702;2022-07-23T08:00:06;11.53;;;7.27;;
11054;SDS011;5580;50.106;8.702;2022-07-23T08:02:44;11.57;;;7.50;;
11054;SDS011;5580;50.106;8.702;2022-07-23T08:05:11;11.57;;;7.50;;
11054;SDS011;5580;50.106;8.702;2022-07-23T08:07:37;12.13;;;7.77;;
11054;SDS011;5580;50.106;8.702;2022-07-23T08:10:05;10.53;;;7.57;;
11054;SDS011;5580;50.106;8.702;2022-07-23T08:15:06;10.37;;;7.37;;
11054;SDS011;5580;50.106;8.702;2022-07-23T08:17:32;11.40;;;7.07;;
11054;SDS011;5580;50.106;8.702;2022-07-23T08:19:58;12.33;;;7.63;;
11054;SDS011;5580;50.106;8.702;2022-07-23T08:22:23;10.87;;;7.43;;
11054;SDS011;5580;50.106;8.702;2022-07-23T08:24:49;10.50;;;7.60;;
11054;SDS011;5580;50.106;8.702;2022-07-23T08:27:14;11.07;;;7.17;;
11054;SDS011;5580;50.106;8.702;2022-07-23T08:29:40;11.10;;;7.13;;
11054;SDS011;5580;50.106;8.702;2022-07-23T08:32:05;11.67;;;7.27;;
11054;SDS011;5580;50.106;8.702;2022-07-23T08:34:31;12.70;;;7.43;;
11054;SDS011;5580;50.106;8.702;2022-07-23T08:36:57;10.70;;;6.80;;
11054;SDS011;5580;50.106;8.702;2022-07-23T08:39:22;10.97;;;7.63;;
11054;SDS011;5580;50.106;8.702;2022-07-23T08:41:48;12.87;;;7.83;;
11054;SDS011;5580;50.106;8.702;2022-07-23T08:44:15;10.93;;;7.20;;
11054;SDS011;5580;50.106;8.702;2022-07-23T08:46:42;11.77;;;7.33;;
11054;SDS011;5580;50.106;8.702;2022-07-23T08:49:10;11.23;;;6.90;;
11054;SDS011;5580;50.106;8.702;2022-07-23T08:51:37;12.20;;;7.53;;
11054;SDS011;5580;50.106;8.702;2022-07-23T08:54:02;11.17;;;7.23;;
11054;SDS011;5580;50.106;8.702;2022-07-23T08:56:29;10.93;;;7.23;;
11054;SDS011;5580;50.106;8.702;2022-07-23T08:58:54;10.20;;;7.00;;
11054;SDS011;5580;50.106;8.702;2022-07-23T09:01:20;10.07;;;7.20;;
11054;SDS011;5580;50.106;8.702;2022-07-23T09:03:46;10.93;;;7.50;;
11054;SDS011;5580;50.106;8.702;2022-07-23T09:06:11;9.83;;;7.23;;
11054;SDS011;5580;50.106;8.702;2022-07-23T09:08:38;10.27;;;7.10;;
11054;SDS011;5580;50.106;8.702;2022-07-23T09:11:05;11.13;;;7.47;;
11054;SDS011;5580;50.106;8.702;2022-07-23T09:21:10;11.40;;;7.70;;
11054;SDS011;5580;50.106;8.702;2022-07-23T09:23:42;11.33;;;7.63;;
11054;SDS011;5580;50.106;8.702;2022-07-23T09:26:20;11.90;;;7.10;;
11054;SDS011;5580;50.106;8.702;2022-07-23T09:31:22;10.73;;;7.10;;
11054;SDS011;5580;50.106;8.702;2022-07-23T09:33:49;10.80;;;7.43;;
11054;SDS011;5580;50.106;8.702;2022-07-23T09:36:15;11.33;;;7.27;;
11054;SDS011;5580;50.106;8.702;2022-07-23T09:38:51;11.67;;;6.80;;
11054;SDS011;5580;50.106;8.702;2022-07-23T09:41:17;10.37;;;6.90;;
11054;SDS011;5580;50.106;8.702;2022-07-23T09:43:43;10.40;;;7.13;;
11054;SDS011;5580;50.106;8.702;2022-07-23T09:48:46;10.53;;;6.83;;
11054;SDS011;5580;50.106;8.702;2022-07-23T09:51:12;10.33;;;7.07;;
11054;SDS011;5580;50.106;8.702;2022-07-23T09:54:07;11.03;;;7.20;;
11054;SDS011;5580;50.106;8.702;2022-07-23T09:56:49;10.73;;;7.10;;
11054;SDS011;5580;50.106;8.702;2022-07-23T09:59:16;12.03;;;7.10;;
11054;SDS011;5580;50.106;8.702;2022-07-23T10:01:44;43.20;;;13.83;;
11054;SDS011;5580;50.106;8.702;2022-07-23T10:04:11;12.93;;;7.30;;
11054;SDS011;5580;50.106;8.702;2022-07-23T10:06:37;10.13;;;7.17;;
11054;SDS011;5580;50.106;8.702;2022-07-23T10:09:05;9.93;;;7.13;;
11054;SDS011;5580;50.106;8.702;2022-07-23T10:11:33;11.37;;;7.33;;
11054;SDS011;5580;50.106;8.702;2022-07-23T10:13:59;11.13;;;7.30;;
11054;SDS011;5580;50.106;8.702;2022-07-23T10:16:29;11.47;;;6.73;;
11054;SDS011;5580;50.106;8.702;2022-07-23T10:18:55;11.00;;;6.80;;
11054;SDS011;5580;50.106;8.702;2022-07-23T10:21:25;12.53;;;7.17;;
11054;SDS011;5580;50.106;8.702;2022-07-23T10:24:21;9.53;;;6.90;;
11054;SDS011;5580;50.106;8.702;2022-07-23T10:26:53;10.53;;;7.20;;
11054;SDS011;5580;50.106;8.702;2022-07-23T10:29:39;12.10;;;7.37;;
11054;SDS011;5580;50.106;8.702;2022-07-23T10:35:07;10.90;;;7.50;;
11054;SDS011;5580;50.106;8.702;2022-07-23T10:37:51;12.17;;;8.00;;
11054;SDS011;5580;50.106;8.702;2022-07-23T10:40:32;10.60;;;7.33;;
11054;SDS011;5580;50.106;8.702;2022-07-23T10:42:58;11.30;;;7.80;;
11054;SDS011;5580;50.106;8.702;2022-07-23T10:45:35;12.00;;;7.67;;
11054;SDS011;5580;50.106;8.702;2022-07-23T10:48:22;12.20;;;7.83;;
11054;SDS011;5580;50.106;8.702;2022-07-23T10:56:17;10.80;;;7.43;;
11054;SDS011;5580;50.106;8.702;2022-07-23T10:59:04;11.87;;;7.40;;
11054;SDS011;5580;50.106;8.702;2022-07-23T11:01:37;12.87;;;7.57;;
11054;SDS011;5580;50.106;8.702;2022-07-23T11:04:04;11.67;;;7.00;;
11054;SDS011;5580;50.106;8.702;2022-07-23T11:09:25;11.40;;;7.40;;
11054;SDS011;5580;50.106;8.702;2022-07-23T11:17:23;11.93;;;7.40;;
11054;SDS011;5580;50.106;8.702;2022-07-23T11:20:32;11.77;;;7.40;;
11054;SDS011;5580;50.106;8.702;2022-07-23T11:25:33;10.03;;;7.27;;
11054;SDS011;5580;50.106;8.702;2022-07-23T11:30:38;10.00;;;7.37;;
11054;SDS011;5580;50.106;8.702;2022-07-23T11:35:37;11.67;;;7.30;;
11054;SDS011;5580;50.106;8.702;2022-07-23T11:38:20;10.60;;;7.60;;
11054;SDS011;5580;50.106;8.702;2022-07-23T11:40:48;10.93;;;7.20;;
11054;SDS011;5580;50.106;8.702;2022-07-23T11:43:15;11.77;;;7.57;;
11054;SDS011;5580;50.106;8.702;2022-07-23T11:45:43;11.10;;;7.47;;
11054;SDS011;5580;50.106;8.702;2022-07-23T11:48:26;10.43;;;7.50;;
11054;SDS011;5580;50.106;8.702;2022-07-23T11:50:53;9.60;;;7.10;;
11054;SDS011;5580;50.106;8.702;2022-07-23T11:55:53;11.60;;;7.63;;
11054;SDS011;5580;50.106;8.702;2022-07-23T11:58:20;11.27;;;7.30;;
11054;SDS011;5580;50.106;8.702;2022-07-23T12:00:46;11.33;;;7.83;;
11054;SDS011;5580;50.106;8.702;2022-07-23T12:03:12;10.70;;;7.50;;
11054;SDS011;5580;50.106;8.702;2022-07-23T12:05:38;11.30;;;7.87;;
11054;SDS011;5580;50.106;8.702;2022-07-23T12:08:05;12.23;;;7.50;;
11054;SDS011;5580;50.106;8.702;2022-07-23T12:13:09;10.37;;;7.43;;
11054;SDS011;5580;50.106;8.702;2022-07-23T12:15:43;12.43;;;8.13;;
11054;SDS011;5580;50.106;8.702;2022-07-23T12:18:17;11.20;;;7.70;;
11054;SDS011;5580;50.106;8.702;2022-07-23T12:20:46;12.27;;;8.00;;
11054;SDS011;5580;50.106;8.702;2022-07-23T12:23:17;10.67;;;7.50;;
11054;SDS011;5580;50.106;8.702;2022-07-23T12:25:44;11.60;;;7.80;;
11054;SDS011;5580;50.106;8.702;2022-07-23T12:33:24;13.23;;;7.70;;
11054;SDS011;5580;50.106;8.702;2022-07-23T12:35:59;12.33;;;7.70;;
11054;SDS011;5580;50.106;8.702;2022-07-23T12:38:27;11.13;;;8.00;;
11054;SDS011;5580;50.106;8.702;2022-07-23T12:41:00;14.33;;;7.60;;
11054;SDS011;5580;50.106;8.702;2022-07-23T12:43:30;11.93;;;7.63;;
11054;SDS011;5580;50.106;8.702;2022-07-23T12:48:53;11.13;;;8.00;;
11054;SDS011;5580;50.106;8.702;2022-07-23T12:51:19;14.23;;;8.43;;
11054;SDS011;5580;50.106;8.702;2022-07-23T12:54:05;13.20;;;8.20;;
11054;SDS011;5580;50.106;8.702;2022-07-23T12:59:06;12.00;;;7.70;;
11054;SDS011;5580;50.106;8.702;2022-07-23T13:01:37;10.50;;;8.00;;
11054;SDS011;5580;50.106;8.702;2022-07-23T13:06:47;11.57;;;7.73;;
11054;SDS011;5580;50.106;8.702;2022-07-23T13:09:21;13.90;;;7.50;;
11054;SDS011;5580;50.106;8.702;2022-07-23T13:11:48;12.43;;;7.83;;
11054;SDS011;5580;50.106;8.702;2022-07-23T13:14:15;11.75;;;7.20;;
11054;SDS011;5580;50.106;8.702;2022-07-23T13:16:42;11.40;;;8.07;;
11054;SDS011;5580;50.106;8.702;2022-07-23T13:19:08;12.80;;;7.73;;
11054;SDS011;5580;50.106;8.702;2022-07-23T13:21:34;21.13;;;9.50;;
11054;SDS011;5580;50.106;8.702;2022-07-23T13:23:59;58.90;;;18.07;;
11054;SDS011;5580;50.106;8.702;2022-07-23T13:26:25;16.60;;;9.03;;
11054;SDS011;5580;50.106;8.702;2022-07-23T13:28:51;27.37;;;11.33;;
11054;SDS011;5580;50.106;8.702;2022-07-23T13:31:17;29.20;;;11.63;;
11054;SDS011;5580;50.106;8.702;2022-07-23T13:33:43;18.63;;;9.55;;
11054;SDS011;5580;50.106;8.702;2022-07-23T13:36:08;14.77;;;8.97;;
11054;SDS011;5580;50.106;8.702;2022-07-23T13:38:34;12.68;;;8.18;;
11054;SDS011;5580;50.106;8.702;2022-07-23T13:41:00;15.03;;;8.17;;
11054;SDS011;5580;50.106;8.702;2022-07-23T13:43:28;11.13;;;7.85;;
11054;SDS011;5580;50.106;8.702;2022-07-23T13:45:54;12.20;;;8.20;;
11054;SDS011;5580;50.106;8.702;2022-07-23T13:48:21;10.40;;;7.57;;
11054;SDS011;5580;50.106;8.702;2022-07-23T13:50:47;11.53;;;7.73;;
11054;SDS011;5580;50.106;8.702;2022-07-23T13:53:15;12.30;;;8.13;;
11054;SDS011;5580;50.106;8.702;2022-07-23T13:55:42;11.73;;;7.90;;
11054;SDS011;5580;50.106;8.702;2022-07-23T13:58:09;12.67;;;7.90;;
11054;SDS011;5580;50.106;8.702;2022-07-23T14:00:36;11.13;;;7.47;;
11054;SDS011;5580;50.106;8.702;2022-07-23T14:03:04;10.83;;;7.60;;
11054;SDS011;5580;50.106;8.702;2022-07-23T14:05:30;9.83;;;7.43;;
11054;SDS011;5580;50.106;8.702;2022-07-23T14:07:55;14.32;;;8.10;;
11054;SDS011;5580;50.106;8.702;2022-07-23T14:10:21;9.63;;;7.30;;
11054;SDS011;5580;50.106;8.702;2022-07-23T14:12:48;11.13;;;8.13;;
11054;SDS011;5580;50.106;8.702;2022-07-23T14:15:15;11.00;;;7.93;;
11054;SDS011;5580;50.106;8.702;2022-07-23T14:17:42;11.50;;;8.07;;
11054;SDS011;5580;50.106;8.702;2022-07-23T14:20:09;10.30;;;7.78;;
11054;SDS011;5580;50.106;8.702;2022-07-23T14:22:36;12.23;;;7.78;;
11054;SDS011;5580;50.106;8.702;2022-07-23T14:25:03;12.45;;;8.55;;
11054;SDS011;5580;50.106;8.702;2022-07-23T14:27:29;12.40;;;8.60;;
11054;SDS011;5580;50.106;8.702;2022-07-23T14:29:55;11.10;;;8.15;;
11054;SDS011;5580;50.106;8.702;2022-07-23T14:32:21;11.65;;;8.10;;
11054;SDS011;5580;50.106;8.702;2022-07-23T14:34:47;12.60;;;8.60;;
11054;SDS011;5580;50.106;8.702;2022-07-23T14:37:13;11.30;;;8.30;;
11054;SDS011;5580;50.106;8.702;2022-07-23T14:39:40;11.95;;;8.32;;
11054;SDS011;5580;50.106;8.702;2022-07-23T14:42:06;12.38;;;8.13;;
11054;SDS011;5580;50.106;8.702;2022-07-23T14:44:33;11.23;;;8.10;;
11054;SDS011;5580;50.106;8.702;2022-07-23T14:46:59;12.85;;;8.15;;
11054;SDS011;5580;50.106;8.702;2022-07-23T14:49:26;11.85;;;7.90;;
11054;SDS011;5580;50.106;8.702;2022-07-23T14:51:52;12.15;;;8.35;;
11054;SDS011;5580;50.106;8.702;2022-07-23T14:54:17;11.80;;;8.40;;
11054;SDS011;5580;50.106;8.702;2022-07-23T14:56:44;14.52;;;9.05;;
11054;SDS011;5580;50.106;8.702;2022-07-23T14:59:10;12.93;;;8.80;;
11054;SDS011;5580;50.106;8.702;2022-07-23T15:01:36;12.52;;;8.73;;
11054;SDS011;5580;50.106;8.702;2022-07-23T15:04:03;11.10;;;8.30;;
11054;SDS011;5580;50.106;8.702;2022-07-23T15:06:29;12.43;;;8.40;;
11054;SDS011;5580;50.106;8.702;2022-07-23T15:08:55;12.88;;;8.55;;
11054;SDS011;5580;50.106;8.702;2022-07-23T15:11:21;11.55;;;8.00;;
11054;SDS011;5580;50.106;8.702;2022-07-23T15:13:46;10.93;;;8.15;;
11054;SDS011;5580;50.106;8.702;2022-07-23T15:16:12;12.00;;;8.23;;
11054;SDS011;5580;50.106;8.702;2022-07-23T15:18:38;12.70;;;8.25;;
11054;SDS011;5580;50.106;8.702;2022-07-23T15:21:04;10.77;;;7.72;;
11054;SDS011;5580;50.106;8.702;2022-07-23T15:23:30;12.68;;;8.52;;
11054;SDS011;5580;50.106;8.702;2022-07-23T15:25:56;13.23;;;8.15;;
11054;SDS011;5580;50.106;8.702;2022-07-23T15:28:22;11.75;;;8.25;;
11054;SDS011;5580;50.106;8.702;2022-07-23T15:30:49;11.52;;;8.15;;
11054;SDS011;5580;50.106;8.702;2022-07-23T15:33:16;11.68;;;8.15;;
11054;SDS011;5580;50.106;8.702;2022-07-23T15:35:42;13.75;;;8.05;;
11054;SDS011;5580;50.106;8.702;2022-07-23T15:38:07;14.13;;;7.82;;
11054;SDS011;5580;50.106;8.702;2022-07-23T15:40:33;10.60;;;7.43;;
11054;SDS011;5580;50.106;8.702;2022-07-23T15:42:58;10.95;;;7.43;;
11054;SDS011;5580;50.106;8.702;2022-07-23T15:45:25;12.02;;;7.90;;